CheckWX is a tool to help pilots better visualize weather data.  It is not intended as a substitute for an official pre-flight weather briefing.

18:01:55 UTC

KDVP METAR
Slayton Municipal Airport
Slayton, Minnesota, USA
Current

1 hour ago

KDVP 171659Z AUTO 02008KT 5SM BR SCT025 SCT038 M09/M11 A2994 RMK AO2
Observed
Feb-17 @ 16:59 UTC
Wind
  • 020° at 8 KTS
Visibility
5 SM
Flight Rules
MVFR
Conditions
Mist
Cloud Levels
  • Scattered at 2,500' AGL
  • Scattered at 3,800' AGL
Temperature
-9°C / 16°F
Dewpoint
-11°C / 12°F
Humidity
86%
Altimeter
29.94" Hg
Pressure
1013.92 hPa
Previous

2 hours ago

KDVP 171559Z AUTO 03009KT 3SM -SN OVC015 M10/M11 A2993 RMK AO2
Observed
Feb-17 @ 15:59 UTC
Wind
  • 030° at 9 KTS
Visibility
3 SM
Flight Rules
MVFR
Conditions
Light Snow
Cloud Levels
  • Overcast at 1,500' AGL
Temperature
-10°C / 14°F
Dewpoint
-11°C / 12°F
Humidity
92%
Altimeter
29.93" Hg
Pressure
1013.52 hPa
Previous

3 hours ago

KDVP 171459Z AUTO 03007KT 2SM -SN OVC013 M10/M11 A2992 RMK AO2
Observed
Feb-17 @ 14:59 UTC
Wind
  • 030° at 7 KTS
Visibility
2 SM
Flight Rules
IFR
Conditions
Light Snow
Cloud Levels
  • Overcast at 1,300' AGL
Temperature
-10°C / 14°F
Dewpoint
-11°C / 12°F
Humidity
92%
Altimeter
29.92" Hg
Pressure
1013.22 hPa